sensor_id;sensor_type;location;lat;lon;timestamp;temperature;humidity
5276;DHT22;2661;50.786;12.728;2023-04-03T00:01:35;3.10;1.00
5276;DHT22;2661;50.786;12.728;2023-04-03T00:04:01;3.00;1.00
5276;DHT22;2661;50.786;12.728;2023-04-03T00:06:28;3.00;1.00
5276;DHT22;2661;50.786;12.728;2023-04-03T00:08:55;2.90;1.00
5276;DHT22;2661;50.786;12.728;2023-04-03T00:11:21;2.90;1.00
5276;DHT22;2661;50.786;12.728;2023-04-03T00:13:48;2.90;1.00
5276;DHT22;2661;50.786;12.728;2023-04-03T00:16:14;2.90;1.00
5276;DHT22;2661;50.786;12.728;2023-04-03T00:18:41;2.80;1.00
5276;DHT22;2661;50.786;12.728;2023-04-03T00:21:09;2.90;1.00
5276;DHT22;2661;50.786;12.728;2023-04-03T00:23:36;2.80;1.00
5276;DHT22;2661;50.786;12.728;2023-04-03T00:26:02;2.90;1.00
5276;DHT22;2661;50.786;12.728;2023-04-03T00:28:29;3.00;1.00
5276;DHT22;2661;50.786;12.728;2023-04-03T00:30:56;2.90;1.00
5276;DHT22;2661;50.786;12.728;2023-04-03T00:33:22;2.80;1.00
5276;DHT22;2661;50.786;12.728;2023-04-03T00:35:51;2.80;1.00
5276;DHT22;2661;50.786;12.728;2023-04-03T00:38:18;2.70;1.00
5276;DHT22;2661;50.786;12.728;2023-04-03T00:40:46;2.70;1.00
5276;DHT22;2661;50.786;12.728;2023-04-03T00:45:43;2.60;1.00
5276;DHT22;2661;50.786;12.728;2023-04-03T00:48:11;2.60;1.00
5276;DHT22;2661;50.786;12.728;2023-04-03T00:50:40;2.60;1.00
5276;DHT22;2661;50.786;12.728;2023-04-03T00:53:08;2.60;1.00
5276;DHT22;2661;50.786;12.728;2023-04-03T00:55:36;2.60;1.00
5276;DHT22;2661;50.786;12.728;2023-04-03T00:58:03;2.60;1.00
5276;DHT22;2661;50.786;12.728;2023-04-03T01:00:33;2.60;1.00
5276;DHT22;2661;50.786;12.728;2023-04-03T01:03:00;2.60;1.00
5276;DHT22;2661;50.786;12.728;2023-04-03T01:05:27;2.60;1.00
5276;DHT22;2661;50.786;12.728;2023-04-03T01:07:53;2.50;1.00
5276;DHT22;2661;50.786;12.728;2023-04-03T01:10:20;2.50;1.00
5276;DHT22;2661;50.786;12.728;2023-04-03T01:12:48;2.50;1.00
5276;DHT22;2661;50.786;12.728;2023-04-03T01:15:19;2.50;1.00
5276;DHT22;2661;50.786;12.728;2023-04-03T01:17:50;2.50;1.00
5276;DHT22;2661;50.786;12.728;2023-04-03T01:20:31;2.50;1.00
5276;DHT22;2661;50.786;12.728;2023-04-03T01:25:44;2.50;1.00
5276;DHT22;2661;50.786;12.728;2023-04-03T01:28:13;2.40;1.00
5276;DHT22;2661;50.786;12.728;2023-04-03T01:33:25;2.40;1.00
5276;DHT22;2661;50.786;12.728;2023-04-03T01:35:52;2.40;1.00
5276;DHT22;2661;50.786;12.728;2023-04-03T01:38:18;2.30;1.00
5276;DHT22;2661;50.786;12.728;2023-04-03T01:40:45;2.20;1.00
5276;DHT22;2661;50.786;12.728;2023-04-03T01:43:11;2.20;1.00
5276;DHT22;2661;50.786;12.728;2023-04-03T01:45:38;2.30;1.00
5276;DHT22;2661;50.786;12.728;2023-04-03T01:48:05;2.20;1.00
5276;DHT22;2661;50.786;12.728;2023-04-03T01:50:32;2.30;1.00
5276;DHT22;2661;50.786;12.728;2023-04-03T01:52:58;2.20;1.00
5276;DHT22;2661;50.786;12.728;2023-04-03T01:55:25;2.20;1.00
5276;DHT22;2661;50.786;12.728;2023-04-03T01:57:51;2.20;1.00
5276;DHT22;2661;50.786;12.728;2023-04-03T02:00:18;2.10;1.00
5276;DHT22;2661;50.786;12.728;2023-04-03T02:02:44;2.10;1.00
5276;DHT22;2661;50.786;12.728;2023-04-03T02:05:11;2.00;1.00
5276;DHT22;2661;50.786;12.728;2023-04-03T02:07:38;2.00;1.00
5276;DHT22;2661;50.786;12.728;2023-04-03T02:10:04;2.00;1.00
5276;DHT22;2661;50.786;12.728;2023-04-03T02:12:31;2.00;1.00
5276;DHT22;2661;50.786;12.728;2023-04-03T02:14:58;2.00;1.00
5276;DHT22;2661;50.786;12.728;2023-04-03T02:17:24;2.00;1.00
5276;DHT22;2661;50.786;12.728;2023-04-03T02:19:51;1.90;1.00
5276;DHT22;2661;50.786;12.728;2023-04-03T02:22:17;2.00;1.00
5276;DHT22;2661;50.786;12.728;2023-04-03T02:24:44;1.90;1.00
5276;DHT22;2661;50.786;12.728;2023-04-03T02:27:11;1.90;1.00
5276;DHT22;2661;50.786;12.728;2023-04-03T02:29:37;1.80;1.00
5276;DHT22;2661;50.786;12.728;2023-04-03T02:32:04;1.80;1.00
5276;DHT22;2661;50.786;12.728;2023-04-03T02:34:31;1.90;1.00
5276;DHT22;2661;50.786;12.728;2023-04-03T02:36:57;1.80;1.00
5276;DHT22;2661;50.786;12.728;2023-04-03T02:39:24;1.80;1.00
5276;DHT22;2661;50.786;12.728;2023-04-03T02:41:51;1.80;1.00
5276;DHT22;2661;50.786;12.728;2023-04-03T02:44:17;1.80;1.00
5276;DHT22;2661;50.786;12.728;2023-04-03T02:46:45;1.80;1.00
5276;DHT22;2661;50.786;12.728;2023-04-03T02:49:11;1.80;1.00
5276;DHT22;2661;50.786;12.728;2023-04-03T02:51:38;1.90;1.00
5276;DHT22;2661;50.786;12.728;2023-04-03T02:54:04;1.80;1.00
5276;DHT22;2661;50.786;12.728;2023-04-03T02:56:31;1.70;1.00
5276;DHT22;2661;50.786;12.728;2023-04-03T02:58:57;1.70;1.00
5276;DHT22;2661;50.786;12.728;2023-04-03T03:01:24;1.60;1.00
5276;DHT22;2661;50.786;12.728;2023-04-03T03:03:50;1.70;1.00
5276;DHT22;2661;50.786;12.728;2023-04-03T03:06:17;1.70;1.00
5276;DHT22;2661;50.786;12.728;2023-04-03T03:08:44;1.70;1.00
5276;DHT22;2661;50.786;12.728;2023-04-03T03:11:11;1.70;1.00
5276;DHT22;2661;50.786;12.728;2023-04-03T03:13:37;1.60;1.00
5276;DHT22;2661;50.786;12.728;2023-04-03T03:16:04;1.50;1.00
5276;DHT22;2661;50.786;12.728;2023-04-03T03:18:31;1.40;1.00
5276;DHT22;2661;50.786;12.728;2023-04-03T03:20:58;1.50;1.00
5276;DHT22;2661;50.786;12.728;2023-04-03T03:23:26;1.40;1.00
5276;DHT22;2661;50.786;12.728;2023-04-03T03:26:11;1.40;1.00
5276;DHT22;2661;50.786;12.728;2023-04-03T03:28:38;1.40;1.00
5276;DHT22;2661;50.786;12.728;2023-04-03T03:31:05;1.30;1.00
5276;DHT22;2661;50.786;12.728;2023-04-03T03:33:32;1.30;1.00
5276;DHT22;2661;50.786;12.728;2023-04-03T03:35:59;1.30;1.00
5276;DHT22;2661;50.786;12.728;2023-04-03T03:38:26;1.30;1.00
5276;DHT22;2661;50.786;12.728;2023-04-03T03:40:52;1.30;1.00
5276;DHT22;2661;50.786;12.728;2023-04-03T03:43:19;1.30;1.00
5276;DHT22;2661;50.786;12.728;2023-04-03T03:45:49;1.20;1.00
5276;DHT22;2661;50.786;12.728;2023-04-03T03:48:16;1.20;1.00
5276;DHT22;2661;50.786;12.728;2023-04-03T03:50:43;1.20;1.00
5276;DHT22;2661;50.786;12.728;2023-04-03T03:53:09;1.20;1.00
5276;DHT22;2661;50.786;12.728;2023-04-03T03:55:36;1.10;1.00
5276;DHT22;2661;50.786;12.728;2023-04-03T03:58:02;1.10;1.00
5276;DHT22;2661;50.786;12.728;2023-04-03T04:00:29;1.00;1.00
5276;DHT22;2661;50.786;12.728;2023-04-03T04:02:56;1.00;1.00
5276;DHT22;2661;50.786;12.728;2023-04-03T04:05:25;1.00;1.00
5276;DHT22;2661;50.786;12.728;2023-04-03T04:07:51;1.00;1.00
5276;DHT22;2661;50.786;12.728;2023-04-03T04:10:18;0.90;1.00
5276;DHT22;2661;50.786;12.728;2023-04-03T04:12:45;0.90;1.00
5276;DHT22;2661;50.786;12.728;2023-04-03T04:15:36;0.80;1.00
5276;DHT22;2661;50.786;12.728;2023-04-03T04:18:03;0.80;1.00
5276;DHT22;2661;50.786;12.728;2023-04-03T04:20:29;0.90;1.00
5276;DHT22;2661;50.786;12.728;2023-04-03T04:22:56;0.90;1.00
5276;DHT22;2661;50.786;12.728;2023-04-03T04:25:22;0.90;1.00
5276;DHT22;2661;50.786;12.728;2023-04-03T04:27:49;0.80;1.00
5276;DHT22;2661;50.786;12.728;2023-04-03T04:30:16;0.90;1.00
5276;DHT22;2661;50.786;12.728;2023-04-03T04:32:42;0.80;1.00
5276;DHT22;2661;50.786;12.728;2023-04-03T04:35:09;0.80;1.00
5276;DHT22;2661;50.786;12.728;2023-04-03T04:37:36;0.70;1.00
5276;DHT22;2661;50.786;12.728;2023-04-03T04:40:02;0.60;1.00
5276;DHT22;2661;50.786;12.728;2023-04-03T04:42:29;0.60;1.00
5276;DHT22;2661;50.786;12.728;2023-04-03T04:44:56;0.60;1.00
5276;DHT22;2661;50.786;12.728;2023-04-03T04:47:22;0.60;1.00
5276;DHT22;2661;50.786;12.728;2023-04-03T04:49:49;0.60;1.00
5276;DHT22;2661;50.786;12.728;2023-04-03T04:52:15;0.50;1.00
5276;DHT22;2661;50.786;12.728;2023-04-03T04:54:42;0.50;1.00
5276;DHT22;2661;50.786;12.728;2023-04-03T04:57:09;0.50;1.00
5276;DHT22;2661;50.786;12.728;2023-04-03T04:59:36;0.40;1.00
5276;DHT22;2661;50.786;12.728;2023-04-03T05:02:03;0.40;1.00
5276;DHT22;2661;50.786;12.728;2023-04-03T05:04:30;0.40;1.00
5276;DHT22;2661;50.786;12.728;2023-04-03T05:06:56;0.40;1.00
5276;DHT22;2661;50.786;12.728;2023-04-03T05:09:23;0.50;1.00
5276;DHT22;2661;50.786;12.728;2023-04-03T05:11:49;0.40;1.00
5276;DHT22;2661;50.786;12.728;2023-04-03T05:14:16;0.40;1.00
5276;DHT22;2661;50.786;12.728;2023-04-03T05:16:43;0.30;1.00
5276;DHT22;2661;50.786;12.728;2023-04-03T05:19:09;0.30;1.00
5276;DHT22;2661;50.786;12.728;2023-04-03T05:21:36;0.40;1.00
5276;DHT22;2661;50.786;12.728;2023-04-03T05:24:03;0.30;1.00
5276;DHT22;2661;50.786;12.728;2023-04-03T05:26:30;0.30;1.00
5276;DHT22;2661;50.786;12.728;2023-04-03T05:28:57;0.30;1.00
5276;DHT22;2661;50.786;12.728;2023-04-03T05:31:23;0.40;1.00
5276;DHT22;2661;50.786;12.728;2023-04-03T05:33:50;0.40;1.00
5276;DHT22;2661;50.786;12.728;2023-04-03T05:36:16;0.40;1.00
5276;DHT22;2661;50.786;12.728;2023-04-03T05:38:44;0.30;1.00
5276;DHT22;2661;50.786;12.728;2023-04-03T05:41:11;0.30;1.00
5276;DHT22;2661;50.786;12.728;2023-04-03T05:43:37;0.30;1.00
5276;DHT22;2661;50.786;12.728;2023-04-03T05:46:11;0.40;1.00
5276;DHT22;2661;50.786;12.728;2023-04-03T05:48:38;0.30;1.00
5276;DHT22;2661;50.786;12.728;2023-04-03T05:51:05;0.20;1.00
5276;DHT22;2661;50.786;12.728;2023-04-03T05:53:33;0.20;1.00
5276;DHT22;2661;50.786;12.728;2023-04-03T05:56:01;0.30;1.00
5276;DHT22;2661;50.786;12.728;2023-04-03T05:58:28;0.40;1.00
5276;DHT22;2661;50.786;12.728;2023-04-03T06:00:54;0.30;1.00
5276;DHT22;2661;50.786;12.728;2023-04-03T06:03:21;0.30;1.00
5276;DHT22;2661;50.786;12.728;2023-04-03T06:05:49;0.20;1.00
5276;DHT22;2661;50.786;12.728;2023-04-03T06:08:15;0.30;1.00
5276;DHT22;2661;50.786;12.728;2023-04-03T06:10:42;0.40;1.00
5276;DHT22;2661;50.786;12.728;2023-04-03T06:13:08;0.40;1.00
5276;DHT22;2661;50.786;12.728;2023-04-03T06:15:35;0.50;1.00
5276;DHT22;2661;50.786;12.728;2023-04-03T06:18:02;0.60;1.00
5276;DHT22;2661;50.786;12.728;2023-04-03T06:20:29;0.60;1.00
5276;DHT22;2661;50.786;12.728;2023-04-03T06:22:55;0.60;1.00
5276;DHT22;2661;50.786;12.728;2023-04-03T06:25:22;0.60;1.00
5276;DHT22;2661;50.786;12.728;2023-04-03T06:27:48;0.70;1.00
5276;DHT22;2661;50.786;12.728;2023-04-03T06:30:15;0.80;1.00
5276;DHT22;2661;50.786;12.728;2023-04-03T06:32:42;0.80;1.00
5276;DHT22;2661;50.786;12.728;2023-04-03T06:35:09;0.80;1.00
5276;DHT22;2661;50.786;12.728;2023-04-03T06:37:35;0.80;1.00
5276;DHT22;2661;50.786;12.728;2023-04-03T06:40:02;0.90;1.00
5276;DHT22;2661;50.786;12.728;2023-04-03T06:42:29;1.00;1.00
5276;DHT22;2661;50.786;12.728;2023-04-03T06:44:56;1.00;1.00
5276;DHT22;2661;50.786;12.728;2023-04-03T06:47:22;1.10;1.00
5276;DHT22;2661;50.786;12.728;2023-04-03T06:49:49;1.10;1.00
5276;DHT22;2661;50.786;12.728;2023-04-03T06:52:15;1.20;1.00
5276;DHT22;2661;50.786;12.728;2023-04-03T06:54:42;1.10;1.00
5276;DHT22;2661;50.786;12.728;2023-04-03T06:57:09;1.10;1.00
5276;DHT22;2661;50.786;12.728;2023-04-03T06:59:35;1.10;1.00
5276;DHT22;2661;50.786;12.728;2023-04-03T07:02:02;1.10;1.00
5276;DHT22;2661;50.786;12.728;2023-04-03T07:04:29;1.20;1.00
5276;DHT22;2661;50.786;12.728;2023-04-03T07:06:56;1.30;1.00
5276;DHT22;2661;50.786;12.728;2023-04-03T07:09:22;1.20;1.00
5276;DHT22;2661;50.786;12.728;2023-04-03T07:11:49;1.30;1.00
5276;DHT22;2661;50.786;12.728;2023-04-03T07:14:15;1.30;1.00
5276;DHT22;2661;50.786;12.728;2023-04-03T07:16:42;1.30;1.00
5276;DHT22;2661;50.786;12.728;2023-04-03T07:19:09;1.20;1.00
5276;DHT22;2661;50.786;12.728;2023-04-03T07:21:36;1.30;1.00
5276;DHT22;2661;50.786;12.728;2023-04-03T07:24:02;1.30;1.00
5276;DHT22;2661;50.786;12.728;2023-04-03T07:26:29;1.30;1.00
5276;DHT22;2661;50.786;12.728;2023-04-03T07:28:55;1.30;1.00
5276;DHT22;2661;50.786;12.728;2023-04-03T07:31:22;1.50;1.00
5276;DHT22;2661;50.786;12.728;2023-04-03T07:33:49;1.50;1.00
5276;DHT22;2661;50.786;12.728;2023-04-03T07:36:18;1.50;1.00
5276;DHT22;2661;50.786;12.728;2023-04-03T07:38:44;1.60;1.00
5276;DHT22;2661;50.786;12.728;2023-04-03T07:41:12;1.70;1.00
5276;DHT22;2661;50.786;12.728;2023-04-03T07:43:41;1.80;1.00
5276;DHT22;2661;50.786;12.728;2023-04-03T07:46:08;1.90;1.00
5276;DHT22;2661;50.786;12.728;2023-04-03T07:48:35;1.80;1.00
5276;DHT22;2661;50.786;12.728;2023-04-03T07:51:03;1.80;1.00
5276;DHT22;2661;50.786;12.728;2023-04-03T07:53:30;1.80;1.00
5276;DHT22;2661;50.786;12.728;2023-04-03T07:55:57;2.10;1.00
5276;DHT22;2661;50.786;12.728;2023-04-03T07:58:24;2.00;1.00
5276;DHT22;2661;50.786;12.728;2023-04-03T08:00:52;2.20;1.00
5276;DHT22;2661;50.786;12.728;2023-04-03T08:03:18;2.20;1.00
5276;DHT22;2661;50.786;12.728;2023-04-03T08:05:46;2.20;1.00
5276;DHT22;2661;50.786;12.728;2023-04-03T08:08:14;2.20;1.00
5276;DHT22;2661;50.786;12.728;2023-04-03T08:10:43;2.10;1.00
5276;DHT22;2661;50.786;12.728;2023-04-03T08:13:09;2.10;1.00
5276;DHT22;2661;50.786;12.728;2023-04-03T08:15:36;2.00;1.00
5276;DHT22;2661;50.786;12.728;2023-04-03T08:18:03;1.90;1.00
5276;DHT22;2661;50.786;12.728;2023-04-03T08:20:30;1.90;1.00
5276;DHT22;2661;50.786;12.728;2023-04-03T08:22:57;2.00;1.00
5276;DHT22;2661;50.786;12.728;2023-04-03T08:25:23;1.70;1.00
5276;DHT22;2661;50.786;12.728;2023-04-03T08:27:50;1.70;1.00
5276;DHT22;2661;50.786;12.728;2023-04-03T08:30:17;1.80;1.00
5276;DHT22;2661;50.786;12.728;2023-04-03T08:32:44;1.80;1.00
5276;DHT22;2661;50.786;12.728;2023-04-03T08:35:11;1.90;1.00
5276;DHT22;2661;50.786;12.728;2023-04-03T08:37:38;2.00;1.00
5276;DHT22;2661;50.786;12.728;2023-04-03T08:40:05;2.10;1.00
5276;DHT22;2661;50.786;12.728;2023-04-03T08:42:50;2.30;1.00
5276;DHT22;2661;50.786;12.728;2023-04-03T08:45:22;2.40;1.00
5276;DHT22;2661;50.786;12.728;2023-04-03T08:47:55;2.40;1.00
5276;DHT22;2661;50.786;12.728;2023-04-03T08:50:30;2.40;1.00
5276;DHT22;2661;50.786;12.728;2023-04-03T08:52:58;2.30;1.00
5276;DHT22;2661;50.786;12.728;2023-04-03T08:58:05;2.50;1.00
5276;DHT22;2661;50.786;12.728;2023-04-03T09:00:36;2.70;1.00
5276;DHT22;2661;50.786;12.728;2023-04-03T09:03:04;2.90;1.00
5276;DHT22;2661;50.786;12.728;2023-04-03T09:05:42;2.90;1.00
5276;DHT22;2661;50.786;12.728;2023-04-03T09:10:49;3.10;1.00
5276;DHT22;2661;50.786;12.728;2023-04-03T09:13:21;3.10;1.00
5276;DHT22;2661;50.786;12.728;2023-04-03T09:15:51;3.20;1.00
5276;DHT22;2661;50.786;12.728;2023-04-03T09:18:32;3.30;1.00
5276;DHT22;2661;50.786;12.728;2023-04-03T09:21:05;3.40;1.00
5276;DHT22;2661;50.786;12.728;2023-04-03T09:26:05;3.50;1.00
5276;DHT22;2661;50.786;12.728;2023-04-03T09:28:34;3.60;1.00
5276;DHT22;2661;50.786;12.728;2023-04-03T09:31:16;3.60;1.00
5276;DHT22;2661;50.786;12.728;2023-04-03T09:33:45;3.70;1.00
5276;DHT22;2661;50.786;12.728;2023-04-03T09:36:12;3.50;1.00
5276;DHT22;2661;50.786;12.728;2023-04-03T09:38:39;3.50;1.00
5276;DHT22;2661;50.786;12.728;2023-04-03T09:41:09;3.50;1.00
5276;DHT22;2661;50.786;12.728;2023-04-03T09:43:39;3.60;1.00
5276;DHT22;2661;50.786;12.728;2023-04-03T09:48:50;3.80;1.00
5276;DHT22;2661;50.786;12.728;2023-04-03T09:51:27;3.70;1.00
5276;DHT22;2661;50.786;12.728;2023-04-03T09:53:54;3.60;1.00
5276;DHT22;2661;50.786;12.728;2023-04-03T09:56:23;3.60;1.00
5276;DHT22;2661;50.786;12.728;2023-04-03T09:58:50;3.60;1.00
5276;DHT22;2661;50.786;12.728;2023-04-03T10:01:22;3.50;1.00
5276;DHT22;2661;50.786;12.728;2023-04-03T10:04:02;3.50;1.00
5276;DHT22;2661;50.786;12.728;2023-04-03T10:06:29;3.50;1.00
5276;DHT22;2661;50.786;12.728;2023-04-03T10:09:00;3.20;1.00
5276;DHT22;2661;50.786;12.728;2023-04-03T10:11:30;2.90;1.00
5276;DHT22;2661;50.786;12.728;2023-04-03T10:13:58;2.80;1.00
5276;DHT22;2661;50.786;12.728;2023-04-03T10:16:27;2.90;1.00
5276;DHT22;2661;50.786;12.728;2023-04-03T10:19:02;2.90;1.00
5276;DHT22;2661;50.786;12.728;2023-04-03T10:24:10;3.30;1.00
5276;DHT22;2661;50.786;12.728;2023-04-03T10:29:13;3.70;1.00
5276;DHT22;2661;50.786;12.728;2023-04-03T10:31:44;3.90;1.00
5276;DHT22;2661;50.786;12.728;2023-04-03T10:34:23;4.00;1.00
5276;DHT22;2661;50.786;12.728;2023-04-03T10:39:20;3.60;1.00
5276;DHT22;2661;50.786;12.728;2023-04-03T10:42:08;3.60;1.00
5276;DHT22;2661;50.786;12.728;2023-04-03T10:44:49;3.50;1.00
5276;DHT22;2661;50.786;12.728;2023-04-03T10:47:19;3.40;1.00
5276;DHT22;2661;50.786;12.728;2023-04-03T10:49:58;3.40;1.00
5276;DHT22;2661;50.786;12.728;2023-04-03T10:52:32;3.50;1.00
5276;DHT22;2661;50.786;12.728;2023-04-03T10:57:35;3.60;1.00
5276;DHT22;2661;50.786;12.728;2023-04-03T11:00:04;3.70;1.00
5276;DHT22;2661;50.786;12.728;2023-04-03T11:02:39;3.70;1.00
5276;DHT22;2661;50.786;12.728;2023-04-03T11:05:26;3.50;1.00
5276;DHT22;2661;50.786;12.728;2023-04-03T11:07:56;3.60;1.00
5276;DHT22;2661;50.786;12.728;2023-04-03T11:10:43;3.60;1.00
5276;DHT22;2661;50.786;12.728;2023-04-03T11:13:15;3.70;1.00
5276;DHT22;2661;50.786;12.728;2023-04-03T11:15:42;3.80;1.00
5276;DHT22;2661;50.786;12.728;2023-04-03T11:18:12;3.60;1.00
5276;DHT22;2661;50.786;12.728;2023-04-03T11:20:41;3.50;1.00
5276;DHT22;2661;50.786;12.728;2023-04-03T11:23:26;3.60;1.00
5276;DHT22;2661;50.786;12.728;2023-04-03T11:26:11;3.60;1.00
5276;DHT22;2661;50.786;12.728;2023-04-03T11:28:38;3.50;1.00
5276;DHT22;2661;50.786;12.728;2023-04-03T11:31:09;3.50;1.00
5276;DHT22;2661;50.786;12.728;2023-04-03T11:36:13;3.70;1.00
5276;DHT22;2661;50.786;12.728;2023-04-03T11:38:51;3.90;1.00
5276;DHT22;2661;50.786;12.728;2023-04-03T11:41:24;3.90;1.00
5276;DHT22;2661;50.786;12.728;2023-04-03T11:43:56;4.10;1.00
5276;DHT22;2661;50.786;12.728;2023-04-03T11:46:48;4.30;1.00
5276;DHT22;2661;50.786;12.728;2023-04-03T11:51:56;4.50;1.00
5276;DHT22;2661;50.786;12.728;2023-04-03T11:57:22;4.60;1.00
5276;DHT22;2661;50.786;12.728;2023-04-03T12:02:54;4.50;1.00
5276;DHT22;2661;50.786;12.728;2023-04-03T12:05:28;4.30;1.00
5276;DHT22;2661;50.786;12.728;2023-04-03T12:10:40;4.20;1.00
5276;DHT22;2661;50.786;12.728;2023-04-03T12:13:13;4.40;1.00
5276;DHT22;2661;50.786;12.728;2023-04-03T12:15:47;4.60;9.00
5276;DHT22;2661;50.786;12.728;2023-04-03T12:18:59;4.70;1.00
5276;DHT22;2661;50.786;12.728;2023-04-03T12:21:05;4.80;3.90
5276;DHT22;2661;50.786;12.728;2023-04-03T12:23:32;4.80;1.00
5276;DHT22;2661;50.786;12.728;2023-04-03T12:26:19;4.70;1.00
5276;DHT22;2661;50.786;12.728;2023-04-03T12:28:48;4.70;1.00
5276;DHT22;2661;50.786;12.728;2023-04-03T12:31:16;4.60;1.00
5276;DHT22;2661;50.786;12.728;2023-04-03T12:33:58;4.70;1.00
5276;DHT22;2661;50.786;12.728;2023-04-03T12:37:02;4.60;1.00
5276;DHT22;2661;50.786;12.728;2023-04-03T12:39:24;4.70;1.00
5276;DHT22;2661;50.786;12.728;2023-04-03T12:42:02;4.80;2.90
5276;DHT22;2661;50.786;12.728;2023-04-03T12:44:44;4.90;2.50
5276;DHT22;2661;50.786;12.728;2023-04-03T12:47:55;4.90;1.00
5276;DHT22;2661;50.786;12.728;2023-04-03T12:50:13;4.90;1.00
5276;DHT22;2661;50.786;12.728;2023-04-03T12:52:44;4.80;4.40
5276;DHT22;2661;50.786;12.728;2023-04-03T12:55:19;4.90;5.00
5276;DHT22;2661;50.786;12.728;2023-04-03T12:57:46;5.00;7.40
5276;DHT22;2661;50.786;12.728;2023-04-03T13:02:46;5.10;12.00
5276;DHT22;2661;50.786;12.728;2023-04-03T13:05:15;5.00;11.90
5276;DHT22;2661;50.786;12.728;2023-04-03T13:07:42;4.90;17.20
5276;DHT22;2661;50.786;12.728;2023-04-03T13:12:46;4.90;12.90
5276;DHT22;2661;50.786;12.728;2023-04-03T13:17:49;5.00;8.30
5276;DHT22;2661;50.786;12.728;2023-04-03T13:20:19;4.90;11.00
5276;DHT22;2661;50.786;12.728;2023-04-03T13:22:48;4.80;5.50
5276;DHT22;2661;50.786;12.728;2023-04-03T13:25:16;4.80;11.50
5276;DHT22;2661;50.786;12.728;2023-04-03T13:27:43;4.70;10.10
5276;DHT22;2661;50.786;12.728;2023-04-03T13:32:46;4.60;19.90
5276;DHT22;2661;50.786;12.728;2023-04-03T13:35:24;4.70;15.20
5276;DHT22;2661;50.786;12.728;2023-04-03T13:37:55;4.60;23.80
5276;DHT22;2661;50.786;12.728;2023-04-03T13:40:22;4.60;24.80
5276;DHT22;2661;50.786;12.728;2023-04-03T13:43:01;4.70;23.90
5276;DHT22;2661;50.786;12.728;2023-04-03T13:45:28;4.70;18.40
5276;DHT22;2661;50.786;12.728;2023-04-03T13:48:10;4.80;20.90
5276;DHT22;2661;50.786;12.728;2023-04-03T13:51:02;4.70;17.60
5276;DHT22;2661;50.786;12.728;2023-04-03T13:53:30;4.70;10.80
5276;DHT22;2661;50.786;12.728;2023-04-03T13:56:05;4.70;25.50
5276;DHT22;2661;50.786;12.728;2023-04-03T13:58:32;4.70;28.20
5276;DHT22;2661;50.786;12.728;2023-04-03T14:01:09;4.70;26.70
5276;DHT22;2661;50.786;12.728;2023-04-03T14:03:46;4.60;31.10
5276;DHT22;2661;50.786;12.728;2023-04-03T14:06:14;4.70;4.50
5276;DHT22;2661;50.786;12.728;2023-04-03T14:08:42;4.60;4.50
5276;DHT22;2661;50.786;12.728;2023-04-03T14:11:19;4.70;1.00
5276;DHT22;2661;50.786;12.728;2023-04-03T14:13:47;4.70;1.70
5276;DHT22;2661;50.786;12.728;2023-04-03T14:16:15;4.60;1.00
5276;DHT22;2661;50.786;12.728;2023-04-03T14:18:43;4.70;1.00
5276;DHT22;2661;50.786;12.728;2023-04-03T14:21:11;4.70;1.00
5276;DHT22;2661;50.786;12.728;2023-04-03T14:23:38;4.90;1.00
5276;DHT22;2661;50.786;12.728;2023-04-03T14:26:09;5.00;1.00
5276;DHT22;2661;50.786;12.728;2023-04-03T14:28:36;5.10;1.00
5276;DHT22;2661;50.786;12.728;2023-04-03T14:31:03;5.10;1.00
5276;DHT22;2661;50.786;12.728;2023-04-03T14:33:30;5.00;1.00
5276;DHT22;2661;50.786;12.728;2023-04-03T14:36:01;4.80;1.00
5276;DHT22;2661;50.786;12.728;2023-04-03T14:38:29;4.80;1.00
5276;DHT22;2661;50.786;12.728;2023-04-03T14:40:56;4.70;1.00
5276;DHT22;2661;50.786;12.728;2023-04-03T14:43:35;4.60;1.00
5276;DHT22;2661;50.786;12.728;2023-04-03T14:46:02;4.60;1.00
5276;DHT22;2661;50.786;12.728;2023-04-03T14:48:28;4.60;1.00
5276;DHT22;2661;50.786;12.728;2023-04-03T14:50:56;4.70;1.00
5276;DHT22;2661;50.786;12.728;2023-04-03T14:53:31;4.60;1.00
5276;DHT22;2661;50.786;12.728;2023-04-03T14:56:09;4.60;1.00
5276;DHT22;2661;50.786;12.728;2023-04-03T14:58:36;4.50;1.00
5276;DHT22;2661;50.786;12.728;2023-04-03T15:01:03;4.60;1.00
5276;DHT22;2661;50.786;12.728;2023-04-03T15:03:30;4.60;1.00
5276;DHT22;2661;50.786;12.728;2023-04-03T15:05:56;4.60;1.00
5276;DHT22;2661;50.786;12.728;2023-04-03T15:08:25;4.50;1.00
5276;DHT22;2661;50.786;12.728;2023-04-03T15:10:53;4.50;1.00
5276;DHT22;2661;50.786;12.728;2023-04-03T15:13:22;4.60;1.00
5276;DHT22;2661;50.786;12.728;2023-04-03T15:15:49;4.70;1.00
5276;DHT22;2661;50.786;12.728;2023-04-03T15:18:23;4.80;1.00
5276;DHT22;2661;50.786;12.728;2023-04-03T15:20:50;4.90;1.00
5276;DHT22;2661;50.786;12.728;2023-04-03T15:23:16;4.90;1.00
5276;DHT22;2661;50.786;12.728;2023-04-03T15:25:44;4.80;1.00
5276;DHT22;2661;50.786;12.728;2023-04-03T15:28:15;4.80;1.00
5276;DHT22;2661;50.786;12.728;2023-04-03T15:30:44;4.80;1.00
5276;DHT22;2661;50.786;12.728;2023-04-03T15:33:11;4.70;1.00
5276;DHT22;2661;50.786;12.728;2023-04-03T15:35:37;4.70;1.00
5276;DHT22;2661;50.786;12.728;2023-04-03T15:38:04;4.70;1.00
5276;DHT22;2661;50.786;12.728;2023-04-03T15:40:31;4.50;1.00
5276;DHT22;2661;50.786;12.728;2023-04-03T15:42:57;4.40;1.00
5276;DHT22;2661;50.786;12.728;2023-04-03T15:45:24;4.40;1.00
5276;DHT22;2661;50.786;12.728;2023-04-03T15:47:50;4.30;1.00
5276;DHT22;2661;50.786;12.728;2023-04-03T15:50:17;4.20;1.00
5276;DHT22;2661;50.786;12.728;2023-04-03T15:52:44;4.10;1.00
5276;DHT22;2661;50.786;12.728;2023-04-03T15:55:10;3.90;1.00
5276;DHT22;2661;50.786;12.728;2023-04-03T15:57:37;3.80;1.00
5276;DHT22;2661;50.786;12.728;2023-04-03T16:00:04;3.80;1.00
5276;DHT22;2661;50.786;12.728;2023-04-03T16:02:31;3.90;1.00
5276;DHT22;2661;50.786;12.728;2023-04-03T16:04:58;3.90;1.00
5276;DHT22;2661;50.786;12.728;2023-04-03T16:07:25;4.00;1.00
5276;DHT22;2661;50.786;12.728;2023-04-03T16:09:52;4.00;1.00
5276;DHT22;2661;50.786;12.728;2023-04-03T16:12:18;3.90;1.00
5276;DHT22;2661;50.786;12.728;2023-04-03T16:14:45;3.80;1.00
5276;DHT22;2661;50.786;12.728;2023-04-03T16:17:11;3.90;1.00
5276;DHT22;2661;50.786;12.728;2023-04-03T16:19:38;4.00;1.00
5276;DHT22;2661;50.786;12.728;2023-04-03T16:22:05;4.00;1.30
5276;DHT22;2661;50.786;12.728;2023-04-03T16:24:31;3.90;1.00
5276;DHT22;2661;50.786;12.728;2023-04-03T16:26:58;3.80;4.00
5276;DHT22;2661;50.786;12.728;2023-04-03T16:29:25;3.80;1.00
5276;DHT22;2661;50.786;12.728;2023-04-03T16:31:51;3.70;1.00
5276;DHT22;2661;50.786;12.728;2023-04-03T16:34:18;3.60;1.00
5276;DHT22;2661;50.786;12.728;2023-04-03T16:36:45;3.60;1.00
5276;DHT22;2661;50.786;12.728;2023-04-03T16:39:11;3.60;8.00
5276;DHT22;2661;50.786;12.728;2023-04-03T16:41:38;3.50;1.00
5276;DHT22;2661;50.786;12.728;2023-04-03T16:44:05;3.50;1.00
5276;DHT22;2661;50.786;12.728;2023-04-03T16:46:33;3.60;1.00
5276;DHT22;2661;50.786;12.728;2023-04-03T16:49:00;3.50;1.00
5276;DHT22;2661;50.786;12.728;2023-04-03T16:51:27;3.40;1.00
5276;DHT22;2661;50.786;12.728;2023-04-03T16:53:53;3.30;1.00
5276;DHT22;2661;50.786;12.728;2023-04-03T16:56:20;3.30;1.00
5276;DHT22;2661;50.786;12.728;2023-04-03T16:58:48;3.20;1.00
5276;DHT22;2661;50.786;12.728;2023-04-03T17:01:16;3.30;1.00
5276;DHT22;2661;50.786;12.728;2023-04-03T17:03:43;3.30;1.00
5276;DHT22;2661;50.786;12.728;2023-04-03T17:06:10;3.40;1.00
5276;DHT22;2661;50.786;12.728;2023-04-03T17:08:42;3.30;1.00
5276;DHT22;2661;50.786;12.728;2023-04-03T17:11:09;3.30;1.00
5276;DHT22;2661;50.786;12.728;2023-04-03T17:13:35;3.30;1.00
5276;DHT22;2661;50.786;12.728;2023-04-03T17:16:02;3.30;1.00
5276;DHT22;2661;50.786;12.728;2023-04-03T17:18:31;3.20;1.00
5276;DHT22;2661;50.786;12.728;2023-04-03T17:20:58;3.10;1.00